sensor_id;sensor_type;location;lat;lon;timestamp;pressure;altitude;pressure_sealevel;temperature;humidity
22389;BME280;11362;48.102;11.620;2023-09-19T00:00:26;94973.31;;;26.26;46.44
22389;BME280;11362;48.102;11.620;2023-09-19T00:02:55;94980.78;;;26.29;46.45
22389;BME280;11362;48.102;11.620;2023-09-19T00:05:21;94972.00;;;26.30;46.10
22389;BME280;11362;48.102;11.620;2023-09-19T00:07:46;94971.13;;;26.33;45.93
22389;BME280;11362;48.102;11.620;2023-09-19T00:10:11;94976.00;;;26.29;46.32
22389;BME280;11362;48.102;11.620;2023-09-19T00:12:37;94969.31;;;26.27;46.18
22389;BME280;11362;48.102;11.620;2023-09-19T00:15:02;94970.53;;;26.26;46.03
22389;BME280;11362;48.102;11.620;2023-09-19T00:17:27;94968.53;;;26.26;45.95
22389;BME280;11362;48.102;11.620;2023-09-19T00:19:53;94969.31;;;26.27;46.32
22389;BME280;11362;48.102;11.620;2023-09-19T00:22:18;94972.78;;;26.31;46.24
22389;BME280;11362;48.102;11.620;2023-09-19T00:24:43;94986.03;;;26.27;45.71
22389;BME280;11362;48.102;11.620;2023-09-19T00:27:08;94980.00;;;26.28;45.91
22389;BME280;11362;48.102;11.620;2023-09-19T00:29:34;94985.25;;;26.26;46.32
22389;BME280;11362;48.102;11.620;2023-09-19T00:31:59;94980.00;;;26.28;46.32
22389;BME280;11362;48.102;11.620;2023-09-19T00:34:24;94983.25;;;26.27;46.02
22389;BME280;11362;48.102;11.620;2023-09-19T00:36:51;94979.66;;;26.26;46.31
22389;BME280;11362;48.102;11.620;2023-09-19T00:39:16;94989.91;;;26.29;45.85
22389;BME280;11362;48.102;11.620;2023-09-19T00:41:41;94986.03;;;26.27;46.27
22389;BME280;11362;48.102;11.620;2023-09-19T00:44:06;94985.56;;;26.28;46.01
22389;BME280;11362;48.102;11.620;2023-09-19T00:46:32;94985.94;;;26.30;45.83
22389;BME280;11362;48.102;11.620;2023-09-19T00:48:58;94978.78;;;26.29;45.85
22389;BME280;11362;48.102;11.620;2023-09-19T00:51:23;94978.53;;;26.24;46.27
22389;BME280;11362;48.102;11.620;2023-09-19T00:53:48;94980.78;;;26.29;45.76
22389;BME280;11362;48.102;11.620;2023-09-19T00:56:15;94990.81;;;26.26;45.97
22389;BME280;11362;48.102;11.620;2023-09-19T00:58:40;94989.25;;;26.25;46.08
22389;BME280;11362;48.102;11.620;2023-09-19T01:01:06;94980.69;;;26.32;46.08
22389;BME280;11362;48.102;11.620;2023-09-19T01:03:31;94984.13;;;26.36;45.67
22389;BME280;11362;48.102;11.620;2023-09-19T01:05:57;94987.81;;;26.33;45.50
22389;BME280;11362;48.102;11.620;2023-09-19T01:08:22;94989.03;;;26.32;45.94
22389;BME280;11362;48.102;11.620;2023-09-19T01:10:52;94996.97;;;26.34;45.93
22389;BME280;11362;48.102;11.620;2023-09-19T01:13:27;95008.09;;;26.34;45.59
22389;BME280;11362;48.102;11.620;2023-09-19T01:16:11;95008.09;;;26.34;45.82
22389;BME280;11362;48.102;11.620;2023-09-19T01:19:07;95007.31;;;26.33;45.90
22389;BME280;11362;48.102;11.620;2023-09-19T01:21:51;95008.09;;;26.34;45.57
22389;BME280;11362;48.102;11.620;2023-09-19T01:24:35;95017.56;;;26.36;45.46
22389;BME280;11362;48.102;11.620;2023-09-19T01:27:25;95021.56;;;26.35;45.42
22389;BME280;11362;48.102;11.620;2023-09-19T01:30:10;95023.22;;;26.33;45.64
22389;BME280;11362;48.102;11.620;2023-09-19T01:32:39;95026.00;;;26.33;45.44
22389;BME280;11362;48.102;11.620;2023-09-19T01:35:04;95026.38;;;26.35;45.79
22389;BME280;11362;48.102;11.620;2023-09-19T01:37:30;95032.72;;;26.35;45.44
22389;BME280;11362;48.102;11.620;2023-09-19T01:40:07;95040.72;;;26.33;45.53
22389;BME280;11362;48.102;11.620;2023-09-19T01:42:41;95039.06;;;26.36;45.31
22389;BME280;11362;48.102;11.620;2023-09-19T01:45:28;95036.72;;;26.34;45.68
22389;BME280;11362;48.102;11.620;2023-09-19T01:48:03;95047.88;;;26.34;45.77
22389;BME280;11362;48.102;11.620;2023-09-19T01:50:44;95050.53;;;26.38;45.67
22389;BME280;11362;48.102;11.620;2023-09-19T01:53:36;95059.34;;;26.36;45.38
22389;BME280;11362;48.102;11.620;2023-09-19T01:56:08;95059.00;;;26.34;45.38
22389;BME280;11362;48.102;11.620;2023-09-19T01:58:47;95052.56;;;26.37;45.57
22389;BME280;11362;48.102;11.620;2023-09-19T02:01:22;95039.84;;;26.36;45.71
22389;BME280;11362;48.102;11.620;2023-09-19T02:03:48;95043.41;;;26.37;45.37
22389;BME280;11362;48.102;11.620;2023-09-19T02:06:14;95045.41;;;26.36;45.81
22389;BME280;11362;48.102;11.620;2023-09-19T02:08:40;95047.88;;;26.34;45.35
22389;BME280;11362;48.102;11.620;2023-09-19T02:11:05;95050.97;;;26.36;45.38
22389;BME280;11362;48.102;11.620;2023-09-19T02:13:30;95059.78;;;26.35;45.57
22389;BME280;11362;48.102;11.620;2023-09-19T02:15:56;95049.88;;;26.34;45.30
22389;BME280;11362;48.102;11.620;2023-09-19T02:18:21;95053.75;;;26.36;45.71
22389;BME280;11362;48.102;11.620;2023-09-19T02:20:46;95050.22;;;26.36;45.31
22389;BME280;11362;48.102;11.620;2023-09-19T02:23:12;95044.75;;;26.32;45.26
22389;BME280;11362;48.102;11.620;2023-09-19T02:25:38;95050.41;;;26.29;45.48
22389;BME280;11362;48.102;11.620;2023-09-19T02:28:03;95049.09;;;26.33;45.69
22389;BME280;11362;48.102;11.620;2023-09-19T02:30:29;95050.75;;;26.31;45.43
22389;BME280;11362;48.102;11.620;2023-09-19T02:32:55;95048.28;;;26.33;45.34
22389;BME280;11362;48.102;11.620;2023-09-19T02:35:20;95055.88;;;26.32;45.66
22389;BME280;11362;48.102;11.620;2023-09-19T02:37:46;95061.44;;;26.32;45.30
22389;BME280;11362;48.102;11.620;2023-09-19T02:40:11;95051.88;;;26.33;45.40
22389;BME280;11362;48.102;11.620;2023-09-19T02:42:37;95053.09;;;26.32;45.55
22389;BME280;11362;48.102;11.620;2023-09-19T02:45:02;95057.44;;;26.33;45.49
22389;BME280;11362;48.102;11.620;2023-09-19T02:47:27;95055.00;;;26.35;45.53
22389;BME280;11362;48.102;11.620;2023-09-19T02:49:53;95059.00;;;26.34;44.88
22389;BME280;11362;48.102;11.620;2023-09-19T02:52:18;95060.66;;;26.32;45.20
22389;BME280;11362;48.102;11.620;2023-09-19T02:54:43;95059.09;;;26.31;45.27
22389;BME280;11362;48.102;11.620;2023-09-19T02:57:09;95059.91;;;26.31;45.34
22389;BME280;11362;48.102;11.620;2023-09-19T02:59:34;95063.81;;;26.34;45.30
22389;BME280;11362;48.102;11.620;2023-09-19T03:01:59;95057.88;;;26.32;45.48
22389;BME280;11362;48.102;11.620;2023-09-19T03:04:25;95052.75;;;26.30;45.51
22389;BME280;11362;48.102;11.620;2023-09-19T03:06:50;95053.00;;;26.36;45.42
22389;BME280;11362;48.102;11.620;2023-09-19T03:09:15;95053.44;;;26.34;45.41
22389;BME280;11362;48.102;11.620;2023-09-19T03:11:41;95054.22;;;26.35;45.38
22389;BME280;11362;48.102;11.620;2023-09-19T03:14:06;95052.66;;;26.34;45.21
22389;BME280;11362;48.102;11.620;2023-09-19T03:16:31;95048.28;;;26.33;45.32
22389;BME280;11362;48.102;11.620;2023-09-19T03:18:57;95053.44;;;26.34;45.35
22389;BME280;11362;48.102;11.620;2023-09-19T03:21:22;95061.78;;;26.34;45.45
22389;BME280;11362;48.102;11.620;2023-09-19T03:23:47;95062.59;;;26.35;45.15
22389;BME280;11362;48.102;11.620;2023-09-19T03:26:13;95054.22;;;26.35;45.28
22389;BME280;11362;48.102;11.620;2023-09-19T03:28:38;95059.00;;;26.34;45.53
22389;BME280;11362;48.102;11.620;2023-09-19T03:31:05;95061.34;;;26.36;45.33
22389;BME280;11362;48.102;11.620;2023-09-19T03:33:31;95069.38;;;26.34;45.11
22389;BME280;11362;48.102;11.620;2023-09-19T03:35:57;95071.69;;;26.35;45.22
22389;BME280;11362;48.102;11.620;2023-09-19T03:38:22;95065.38;;;26.35;45.28
22389;BME280;11362;48.102;11.620;2023-09-19T03:40:47;95074.06;;;26.37;45.30
22389;BME280;11362;48.102;11.620;2023-09-19T03:43:13;95073.25;;;26.36;45.02
22389;BME280;11362;48.102;11.620;2023-09-19T03:45:38;95069.38;;;26.34;45.16
22389;BME280;11362;48.102;11.620;2023-09-19T03:48:08;95074.94;;;26.34;45.27
22389;BME280;11362;48.102;11.620;2023-09-19T03:50:34;95076.50;;;26.35;44.98
22389;BME280;11362;48.102;11.620;2023-09-19T03:52:59;95068.16;;;26.35;45.41
22389;BME280;11362;48.102;11.620;2023-09-19T03:55:24;95075.72;;;26.34;45.31
22389;BME280;11362;48.102;11.620;2023-09-19T03:57:49;95070.13;;;26.34;45.24
22389;BME280;11362;48.102;11.620;2023-09-19T04:00:15;95079.72;;;26.33;45.04
22389;BME280;11362;48.102;11.620;2023-09-19T04:02:40;95074.16;;;26.33;45.20
22389;BME280;11362;48.102;11.620;2023-09-19T04:05:05;95077.28;;;26.35;45.18
22389;BME280;11362;48.102;11.620;2023-09-19T04:07:31;95074.94;;;26.34;45.15
22389;BME280;11362;48.102;11.620;2023-09-19T04:09:56;95078.50;;;26.34;44.98
22389;BME280;11362;48.102;11.620;2023-09-19T04:12:21;95074.50;;;26.35;44.89
22389;BME280;11362;48.102;11.620;2023-09-19T04:14:47;95084.41;;;26.36;44.94
22389;BME280;11362;48.102;11.620;2023-09-19T04:17:12;95083.31;;;26.34;45.06
22389;BME280;11362;48.102;11.620;2023-09-19T04:19:37;95082.84;;;26.35;45.29
22389;BME280;11362;48.102;11.620;2023-09-19T04:22:03;95087.66;;;26.35;44.91
22389;BME280;11362;48.102;11.620;2023-09-19T04:24:28;95084.84;;;26.35;44.85
22389;BME280;11362;48.102;11.620;2023-09-19T04:26:53;95098.78;;;26.35;45.31
22389;BME280;11362;48.102;11.620;2023-09-19T04:29:19;95089.97;;;26.36;44.88
22389;BME280;11362;48.102;11.620;2023-09-19T04:31:44;95098.31;;;26.36;45.12
22389;BME280;11362;48.102;11.620;2023-09-19T04:34:10;95099.22;;;26.33;45.06
22389;BME280;11362;48.102;11.620;2023-09-19T04:36:35;95102.34;;;26.35;45.10
22389;BME280;11362;48.102;11.620;2023-09-19T04:39:01;95102.78;;;26.34;44.85
22389;BME280;11362;48.102;11.620;2023-09-19T04:41:26;95107.56;;;26.33;45.09
22389;BME280;11362;48.102;11.620;2023-09-19T04:43:51;95107.13;;;26.35;45.29
22389;BME280;11362;48.102;11.620;2023-09-19T04:46:16;95106.34;;;26.34;44.92
22389;BME280;11362;48.102;11.620;2023-09-19T04:48:42;95109.13;;;26.34;45.03
22389;BME280;11362;48.102;11.620;2023-09-19T04:51:07;95117.06;;;26.36;44.97
22389;BME280;11362;48.102;11.620;2023-09-19T04:53:32;95121.84;;;26.35;44.87
22389;BME280;11362;48.102;11.620;2023-09-19T04:55:58;95110.34;;;26.33;44.87
22389;BME280;11362;48.102;11.620;2023-09-19T04:58:23;95126.72;;;26.31;45.11
22389;BME280;11362;48.102;11.620;2023-09-19T05:00:49;95126.81;;;26.28;45.08
22389;BME280;11362;48.102;11.620;2023-09-19T05:03:14;95136.41;;;26.27;44.94
22389;BME280;11362;48.102;11.620;2023-09-19T05:05:39;95134.81;;;26.26;45.22
22389;BME280;11362;48.102;11.620;2023-09-19T05:08:05;95140.28;;;26.29;44.88
22389;BME280;11362;48.102;11.620;2023-09-19T05:10:31;95141.88;;;26.30;44.90
22389;BME280;11362;48.102;11.620;2023-09-19T05:12:57;95139.94;;;26.27;44.80
22389;BME280;11362;48.102;11.620;2023-09-19T05:15:22;95141.88;;;26.30;44.89
22389;BME280;11362;48.102;11.620;2023-09-19T05:17:49;95145.84;;;26.29;45.13
22389;BME280;11362;48.102;11.620;2023-09-19T05:20:14;95158.13;;;26.32;45.06
22389;BME280;11362;48.102;11.620;2023-09-19T05:22:40;95153.00;;;26.30;45.04
22389;BME280;11362;48.102;11.620;2023-09-19T05:25:05;95147.44;;;26.30;45.01
22389;BME280;11362;48.102;11.620;2023-09-19T05:27:31;95158.59;;;26.30;44.85
22389;BME280;11362;48.102;11.620;2023-09-19T05:29:56;95164.16;;;26.30;45.01
22389;BME280;11362;48.102;11.620;2023-09-19T05:32:21;95156.91;;;26.33;45.13
22389;BME280;11362;48.102;11.620;2023-09-19T05:34:47;95171.63;;;26.33;44.97
22389;BME280;11362;48.102;11.620;2023-09-19T05:37:12;95166.16;;;26.30;44.77
22389;BME280;11362;48.102;11.620;2023-09-19T05:39:38;95173.69;;;26.29;44.95
22389;BME280;11362;48.102;11.620;2023-09-19T05:42:03;95166.94;;;26.30;44.86
22389;BME280;11362;48.102;11.620;2023-09-19T05:44:29;95171.28;;;26.31;44.60
22389;BME280;11362;48.102;11.620;2023-09-19T05:46:54;95176.06;;;26.31;44.96
22389;BME280;11362;48.102;11.620;2023-09-19T05:49:19;95180.88;;;26.30;44.90
22389;BME280;11362;48.102;11.620;2023-09-19T05:51:45;95177.19;;;26.33;44.96
22389;BME280;11362;48.102;11.620;2023-09-19T05:54:10;95183.19;;;26.32;44.80
22389;BME280;11362;48.102;11.620;2023-09-19T05:56:35;95187.19;;;26.31;45.05
22389;BME280;11362;48.102;11.620;2023-09-19T05:59:01;95190.78;;;26.31;44.76
22389;BME280;11362;48.102;11.620;2023-09-19T06:01:26;95187.19;;;26.31;44.78
22389;BME280;11362;48.102;11.620;2023-09-19T06:03:52;95195.13;;;26.32;44.66
22389;BME280;11362;48.102;11.620;2023-09-19T06:06:17;95191.91;;;26.34;44.60
22389;BME280;11362;48.102;11.620;2023-09-19T06:08:43;95191.47;;;26.35;44.76
22389;BME280;11362;48.102;11.620;2023-09-19T06:11:08;95187.09;;;26.34;44.91
22389;BME280;11362;48.102;11.620;2023-09-19T06:13:34;95196.69;;;26.33;44.87
22389;BME280;11362;48.102;11.620;2023-09-19T06:15:59;95186.34;;;26.34;44.90
22389;BME280;11362;48.102;11.620;2023-09-19T06:18:25;95194.34;;;26.32;44.87
22389;BME280;11362;48.102;11.620;2023-09-19T06:20:51;95199.47;;;26.33;44.90
22389;BME280;11362;48.102;11.620;2023-09-19T06:23:16;95204.94;;;26.37;44.45
22389;BME280;11362;48.102;11.620;2023-09-19T06:25:42;95204.53;;;26.38;44.46
22389;BME280;11362;48.102;11.620;2023-09-19T06:28:09;95191.47;;;26.35;44.83
22389;BME280;11362;48.102;11.620;2023-09-19T06:30:35;95200.19;;;26.37;44.49
22389;BME280;11362;48.102;11.620;2023-09-19T06:33:00;95197.03;;;26.35;44.52
22389;BME280;11362;48.102;11.620;2023-09-19T06:35:27;95197.72;;;26.39;44.78
22389;BME280;11362;48.102;11.620;2023-09-19T06:37:53;95199.72;;;26.39;44.44
22389;BME280;11362;48.102;11.620;2023-09-19T06:40:19;95198.97;;;26.38;44.15
22389;BME280;11362;48.102;11.620;2023-09-19T06:42:46;95208.97;;;26.36;44.63
22389;BME280;11362;48.102;11.620;2023-09-19T06:45:15;95206.50;;;26.38;44.65
22389;BME280;11362;48.102;11.620;2023-09-19T06:47:40;95214.88;;;26.38;44.49
22389;BME280;11362;48.102;11.620;2023-09-19T06:50:06;95211.31;;;26.37;44.38
22389;BME280;11362;48.102;11.620;2023-09-19T06:52:32;95219.69;;;26.37;44.52
22389;BME280;11362;48.102;11.620;2023-09-19T06:54:57;95220.53;;;26.34;44.58
22389;BME280;11362;48.102;11.620;2023-09-19T06:57:23;95228.47;;;26.36;44.51
22389;BME280;11362;48.102;11.620;2023-09-19T06:59:48;95222.09;;;26.35;44.78
22389;BME280;11362;48.102;11.620;2023-09-19T07:02:13;95223.66;;;26.36;44.70
22389;BME280;11362;48.102;11.620;2023-09-19T07:04:39;95227.56;;;26.39;44.49
22389;BME280;11362;48.102;11.620;2023-09-19T07:07:05;95225.06;;;26.44;44.67
22389;BME280;11362;48.102;11.620;2023-09-19T07:09:30;95234.97;;;26.45;44.54
22389;BME280;11362;48.102;11.620;2023-09-19T07:11:56;95228.72;;;26.41;44.43
22389;BME280;11362;48.102;11.620;2023-09-19T07:14:21;95227.94;;;26.41;44.38
22389;BME280;11362;48.102;11.620;2023-09-19T07:16:47;95241.06;;;26.40;44.50
22389;BME280;11362;48.102;11.620;2023-09-19T07:19:12;95250.13;;;26.44;44.59
22389;BME280;11362;48.102;11.620;2023-09-19T07:21:37;95251.00;;;26.41;44.64
22389;BME280;11362;48.102;11.620;2023-09-19T07:24:03;95247.53;;;26.37;44.50
22389;BME280;11362;48.102;11.620;2023-09-19T07:26:28;95249.84;;;26.39;44.42
22389;BME280;11362;48.102;11.620;2023-09-19T07:28:54;95246.63;;;26.40;44.50
22389;BME280;11362;48.102;11.620;2023-09-19T07:31:19;95249.09;;;26.38;44.44
22389;BME280;11362;48.102;11.620;2023-09-19T07:33:44;95249.75;;;26.42;44.43
22389;BME280;11362;48.102;11.620;2023-09-19T07:36:10;95242.63;;;26.41;44.42
22389;BME280;11362;48.102;11.620;2023-09-19T07:38:36;95246.56;;;26.44;44.47
22389;BME280;11362;48.102;11.620;2023-09-19T07:41:01;95242.53;;;26.45;44.30
22389;BME280;11362;48.102;11.620;2023-09-19T07:43:27;95251.31;;;26.43;44.68
22389;BME280;11362;48.102;11.620;2023-09-19T07:45:52;95255.78;;;26.41;44.40
22389;BME280;11362;48.102;11.620;2023-09-19T07:48:17;95254.56;;;26.42;44.35
22389;BME280;11362;48.102;11.620;2023-09-19T07:50:43;95251.31;;;26.43;44.23
22389;BME280;11362;48.102;11.620;2023-09-19T07:53:08;95241.41;;;26.42;44.32
22389;BME280;11362;48.102;11.620;2023-09-19T07:55:33;95247.78;;;26.43;44.54
22389;BME280;11362;48.102;11.620;2023-09-19T07:57:59;95255.34;;;26.42;44.55
22389;BME280;11362;48.102;11.620;2023-09-19T08:00:24;95245.34;;;26.45;44.21
22389;BME280;11362;48.102;11.620;2023-09-19T08:02:50;95253.59;;;26.48;44.03
22389;BME280;11362;48.102;11.620;2023-09-19T08:05:15;95250.47;;;26.46;44.03
22389;BME280;11362;48.102;11.620;2023-09-19T08:07:42;95256.91;;;26.43;44.29
22389;BME280;11362;48.102;11.620;2023-09-19T08:10:08;95260.13;;;26.42;44.57
22389;BME280;11362;48.102;11.620;2023-09-19T08:12:36;95252.91;;;26.44;44.55
22389;BME280;11362;48.102;11.620;2023-09-19T08:15:02;95252.91;;;26.44;44.52
22389;BME280;11362;48.102;11.620;2023-09-19T08:17:28;95260.06;;;26.45;43.98
22389;BME280;11362;48.102;11.620;2023-09-19T08:19:53;95255.34;;;26.42;44.07
22389;BME280;11362;48.102;11.620;2023-09-19T08:22:21;95259.25;;;26.45;44.43
22389;BME280;11362;48.102;11.620;2023-09-19T08:24:46;95262.84;;;26.45;44.11
22389;BME280;11362;48.102;11.620;2023-09-19T08:27:11;95261.53;;;26.50;44.04
22389;BME280;11362;48.102;11.620;2023-09-19T08:29:37;95261.47;;;26.53;43.96
22389;BME280;11362;48.102;11.620;2023-09-19T08:32:02;95255.09;;;26.53;44.02
22389;BME280;11362;48.102;11.620;2023-09-19T08:34:28;95254.41;;;26.49;44.02
22389;BME280;11362;48.102;11.620;2023-09-19T08:36:54;95263.19;;;26.47;44.37
22389;BME280;11362;48.102;11.620;2023-09-19T08:39:19;95261.88;;;26.52;44.17
22389;BME280;11362;48.102;11.620;2023-09-19T08:41:45;95267.81;;;26.54;44.21
22389;BME280;11362;48.102;11.620;2023-09-19T08:44:10;95255.00;;;26.56;43.94
22389;BME280;11362;48.102;11.620;2023-09-19T08:46:37;95251.00;;;26.57;44.00
22389;BME280;11362;48.102;11.620;2023-09-19T08:49:13;95258.94;;;26.59;43.76
22389;BME280;11362;48.102;11.620;2023-09-19T08:51:45;95261.28;;;26.60;44.03
22389;BME280;11362;48.102;11.620;2023-09-19T08:54:33;95261.28;;;26.60;44.12
22389;BME280;11362;48.102;11.620;2023-09-19T08:57:00;95264.50;;;26.59;44.09
22389;BME280;11362;48.102;11.620;2023-09-19T08:59:30;95271.63;;;26.60;43.94
22389;BME280;11362;48.102;11.620;2023-09-19T09:01:55;95261.72;;;26.59;44.06
22389;BME280;11362;48.102;11.620;2023-09-19T09:04:22;95267.63;;;26.61;44.18
22389;BME280;11362;48.102;11.620;2023-09-19T09:06:48;95268.50;;;26.58;44.19
22389;BME280;11362;48.102;11.620;2023-09-19T09:09:16;95265.22;;;26.63;44.28
22389;BME280;11362;48.102;11.620;2023-09-19T09:11:42;95268.09;;;26.59;44.01
22389;BME280;11362;48.102;11.620;2023-09-19T09:14:08;95267.28;;;26.59;43.93
22389;BME280;11362;48.102;11.620;2023-09-19T09:16:33;95267.19;;;26.62;43.97
22389;BME280;11362;48.102;11.620;2023-09-19T09:18:59;95270.69;;;26.66;44.18
22389;BME280;11362;48.102;11.620;2023-09-19T09:21:25;95267.63;;;26.61;43.95
22389;BME280;11362;48.102;11.620;2023-09-19T09:23:50;95268.50;;;26.58;43.86
22389;BME280;11362;48.102;11.620;2023-09-19T09:26:16;95271.72;;;26.56;43.93
22389;BME280;11362;48.102;11.620;2023-09-19T09:28:45;95269.41;;;26.55;44.17
22389;BME280;11362;48.102;11.620;2023-09-19T09:31:23;95280.09;;;26.56;44.26
22389;BME280;11362;48.102;11.620;2023-09-19T09:33:57;95268.94;;;26.56;44.21
22389;BME280;11362;48.102;11.620;2023-09-19T09:36:37;95266.53;;;26.58;43.73
22389;BME280;11362;48.102;11.620;2023-09-19T09:39:03;95257.28;;;26.61;43.85
22389;BME280;11362;48.102;11.620;2023-09-19T09:41:37;95275.22;;;26.60;44.09
22389;BME280;11362;48.102;11.620;2023-09-19T09:44:16;95271.63;;;26.60;44.05
22389;BME280;11362;48.102;11.620;2023-09-19T09:46:43;95268.44;;;26.61;43.58
22389;BME280;11362;48.102;11.620;2023-09-19T09:49:10;95268.50;;;26.58;44.05
22389;BME280;11362;48.102;11.620;2023-09-19T09:51:35;95270.06;;;26.59;44.04
22389;BME280;11362;48.102;11.620;2023-09-19T09:54:17;95280.34;;;26.62;43.74
22389;BME280;11362;48.102;11.620;2023-09-19T09:56:59;95283.91;;;26.62;43.63
22389;BME280;11362;48.102;11.620;2023-09-19T09:59:47;95287.59;;;26.59;43.67
22389;BME280;11362;48.102;11.620;2023-09-19T10:02:17;95281.56;;;26.61;43.75
22389;BME280;11362;48.102;11.620;2023-09-19T10:04:43;95279.56;;;26.61;43.57
22389;BME280;11362;48.102;11.620;2023-09-19T10:07:08;95284.34;;;26.61;43.37
22389;BME280;11362;48.102;11.620;2023-09-19T10:09:46;95275.66;;;26.59;43.84
22389;BME280;11362;48.102;11.620;2023-09-19T10:12:12;95276.34;;;26.63;43.79
22389;BME280;11362;48.102;11.620;2023-09-19T10:14:41;95275.56;;;26.62;43.82
22389;BME280;11362;48.102;11.620;2023-09-19T10:17:09;95269.66;;;26.60;43.78
22389;BME280;11362;48.102;11.620;2023-09-19T10:19:56;95277.22;;;26.60;43.64
22389;BME280;11362;48.102;11.620;2023-09-19T10:22:22;95266.25;;;26.53;44.13
22389;BME280;11362;48.102;11.620;2023-09-19T10:24:49;95274.97;;;26.55;43.63
22389;BME280;11362;48.102;11.620;2023-09-19T10:27:15;95284.34;;;26.61;43.74
22389;BME280;11362;48.102;11.620;2023-09-19T10:29:43;95269.19;;;26.62;43.68
22389;BME280;11362;48.102;11.620;2023-09-19T10:32:09;95270.31;;;26.64;43.62
22389;BME280;11362;48.102;11.620;2023-09-19T10:34:36;95275.56;;;26.62;43.99
22389;BME280;11362;48.102;11.620;2023-09-19T10:37:04;95273.47;;;26.66;43.59
22389;BME280;11362;48.102;11.620;2023-09-19T10:39:30;95277.47;;;26.65;43.53
22389;BME280;11362;48.102;11.620;2023-09-19T10:42:01;95280.63;;;26.67;43.86
22389;BME280;11362;48.102;11.620;2023-09-19T10:44:27;95281.84;;;26.66;43.50
22389;BME280;11362;48.102;11.620;2023-09-19T10:46:57;95282.59;;;26.67;43.63
22389;BME280;11362;48.102;11.620;2023-09-19T10:49:23;95275.47;;;26.66;43.33
22389;BME280;11362;48.102;11.620;2023-09-19T10:51:50;95270.69;;;26.66;43.57
22389;BME280;11362;48.102;11.620;2023-09-19T10:54:19;95275.56;;;26.62;43.78
22389;BME280;11362;48.102;11.620;2023-09-19T10:56:48;95284.72;;;26.63;43.51
22389;BME280;11362;48.102;11.620;2023-09-19T10:59:16;95278.44;;;26.59;43.95
22389;BME280;11362;48.102;11.620;2023-09-19T11:01:45;95272.88;;;26.59;43.84
22389;BME280;11362;48.102;11.620;2023-09-19T11:04:30;95271.13;;;26.65;43.89
22389;BME280;11362;48.102;11.620;2023-09-19T11:07:09;95276.94;;;26.70;43.46
22389;BME280;11362;48.102;11.620;2023-09-19T11:14:59;95269.81;;;26.69;43.72
22389;BME280;11362;48.102;11.620;2023-09-19T11:25:41;95276.94;;;26.70;43.52
22389;BME280;11362;48.102;11.620;2023-09-19T11:30:32;95269.81;;;26.69;43.71
22389;BME280;11362;48.102;11.620;2023-09-19T11:43:48;95264.94;;;26.73;43.52
22389;BME280;11362;48.102;11.620;2023-09-19T11:46:13;95253.78;;;26.73;43.51
22389;BME280;11362;48.102;11.620;2023-09-19T11:48:39;95259.28;;;26.77;43.17
22389;BME280;11362;48.102;11.620;2023-09-19T11:51:11;95270.84;;;26.75;43.17
22389;BME280;11362;48.102;11.620;2023-09-19T11:53:36;95274.75;;;26.78;43.38
22389;BME280;11362;48.102;11.620;2023-09-19T11:56:06;95257.69;;;26.76;43.35
22389;BME280;11362;48.102;11.620;2023-09-19T11:58:31;95261.25;;;26.76;43.47
22389;BME280;11362;48.102;11.620;2023-09-19T12:00:59;95253.00;;;26.73;43.42
22389;BME280;11362;48.102;11.620;2023-09-19T12:03:29;95261.78;;;26.71;43.47
22389;BME280;11362;48.102;11.620;2023-09-19T12:05:54;95256.22;;;26.71;43.33
22389;BME280;11362;48.102;11.620;2023-09-19T12:08:20;95265.78;;;26.70;43.52
22389;BME280;11362;48.102;11.620;2023-09-19T12:10:47;95264.22;;;26.69;43.30
22389;BME280;11362;48.102;11.620;2023-09-19T12:13:16;95265.69;;;26.74;43.39
22389;BME280;11362;48.102;11.620;2023-09-19T12:15:42;95251.44;;;26.72;43.22
22389;BME280;11362;48.102;11.620;2023-09-19T12:18:07;95254.31;;;26.68;43.21
22389;BME280;11362;48.102;11.620;2023-09-19T12:20:44;95251.19;;;26.66;43.54
22389;BME280;11362;48.102;11.620;2023-09-19T12:23:13;95253.09;;;26.69;43.59
22389;BME280;11362;48.102;11.620;2023-09-19T12:25:42;95251.53;;;26.68;43.25
22389;BME280;11362;48.102;11.620;2023-09-19T12:28:08;95245.53;;;26.70;43.23
22389;BME280;11362;48.102;11.620;2023-09-19T12:30:33;95249.88;;;26.71;43.51
22389;BME280;11362;48.102;11.620;2023-09-19T12:32:58;95252.56;;;26.74;43.53
22389;BME280;11362;48.102;11.620;2023-09-19T12:35:31;95242.63;;;26.73;43.20
22389;BME280;11362;48.102;11.620;2023-09-19T12:37:56;95250.13;;;26.76;43.32
22389;BME280;11362;48.102;11.620;2023-09-19T12:40:22;95261.25;;;26.76;43.06
22389;BME280;11362;48.102;11.620;2023-09-19T12:42:49;95251.25;;;26.79;43.20
22389;BME280;11362;48.102;11.620;2023-09-19T12:45:15;95246.53;;;26.76;43.11
22389;BME280;11362;48.102;11.620;2023-09-19T12:51:03;95253.69;;;26.77;43.20
22389;BME280;11362;48.102;11.620;2023-09-19T12:53:29;95242.88;;;26.79;43.26
22389;BME280;11362;48.102;11.620;2023-09-19T12:55:58;95245.66;;;26.79;43.28
22389;BME280;11362;48.102;11.620;2023-09-19T12:58:23;95244.00;;;26.81;42.83
22389;BME280;11362;48.102;11.620;2023-09-19T13:00:49;95246.34;;;26.83;43.22
22389;BME280;11362;48.102;11.620;2023-09-19T13:03:17;95236.41;;;26.82;42.95
22389;BME280;11362;48.102;11.620;2023-09-19T13:05:54;95238.06;;;26.79;42.77
22389;BME280;11362;48.102;11.620;2023-09-19T13:08:24;95240.88;;;26.79;42.99
22389;BME280;11362;48.102;11.620;2023-09-19T13:11:07;95240.00;;;26.82;42.83
22389;BME280;11362;48.102;11.620;2023-09-19T13:13:34;95229.19;;;26.84;43.09
22389;BME280;11362;48.102;11.620;2023-09-19T13:16:01;95223.28;;;26.82;42.95
22389;BME280;11362;48.102;11.620;2023-09-19T13:18:27;95224.50;;;26.81;43.00
22389;BME280;11362;48.102;11.620;2023-09-19T13:21:12;95231.31;;;26.80;43.12